Time;durP1;ratioP1;P1;durP2;ratioP2;P2;SDS_P1;SDS_P2;PMS_P1;PMS_P2;Temp;Humidity;BMP_temperature;BMP_pressure;BME280_temperature;BME280_humidity;BME280_pressure;Samples;Min_cycle;Max_cycle;Signal;HPM_P1;HPM_P2
2022/04/05 00:01:18;;;;;;;;;;;24.00;42.70;;;;;;1566770;75;721;-64
2022/04/05 00:03:20;;;;;;;;;;;24.00;42.70;;;;;;1565889;75;707;-65
2022/04/05 00:05:22;;;;;;;;;;;23.90;42.80;;;;;;1575366;73;1931;-65
2022/04/05 00:07:24;;;;;;;;;;;24.00;42.70;;;;;;1607879;72;709;-67
2022/04/05 00:09:26;;;;;;;;;;;24.00;42.70;;;;;;1588481;72;722;-65
2022/04/05 00:11:28;;;;;;;;;;;24.00;42.70;;;;;;1565046;75;708;-68
2022/04/05 00:13:30;;;;;;;;;;;24.00;42.70;;;;;;1585957;73;747;-68
2022/04/05 00:15:32;;;;;;;;;;;24.00;42.70;;;;;;1568012;75;1148;-66
2022/04/05 00:17:34;;;;;;;;;;;24.00;42.80;;;;;;1606116;73;780;-67
2022/04/05 00:19:36;;;;;;;;;;;23.90;42.80;;;;;;1587979;72;692;-68
2022/04/05 00:21:39;;;;;;;;;;;24.00;42.60;;;;;;1571045;75;759;-68
2022/04/05 00:23:41;;;;;;;;;;;24.00;42.70;;;;;;1577646;75;825;-64
2022/04/05 00:25:42;;;;;;;;;;;24.00;42.70;;;;;;1571753;75;1944;-66
2022/04/05 00:27:45;;;;;;;;;;;24.00;42.70;;;;;;1581277;73;747;-64
2022/04/05 00:29:47;;;;;;;;;;;24.00;42.70;;;;;;1564807;75;783;-64
2022/04/05 00:31:49;;;;;;;;;;;23.90;42.70;;;;;;1573425;75;795;-65
2022/04/05 00:33:51;;;;;;;;;;;24.00;42.70;;;;;;1574600;75;737;-64
2022/04/05 00:35:53;;;;;;;;;;;23.90;42.80;;;;;;1576956;75;1132;-65
2022/04/05 00:37:55;;;;;;;;;;;24.00;42.80;;;;;;1568119;74;2029;-70
2022/04/05 00:39:57;;;;;;;;;;;24.00;42.80;;;;;;1576335;74;687;-69
2022/04/05 00:41:59;;;;;;;;;;;24.00;42.70;;;;;;1566541;75;795;-67
2022/04/05 00:44:01;;;;;;;;;;;24.10;42.90;;;;;;1568182;76;759;-67
2022/04/05 00:46:03;;;;;;;;;;;24.10;42.80;;;;;;1566705;76;1946;-68
2022/04/05 00:48:06;;;;;;;;;;;24.00;42.70;;;;;;1562337;75;1206;-69
2022/04/05 00:50:08;;;;;;;;;;;24.10;42.90;;;;;;1563412;75;730;-71
2022/04/05 00:52:11;;;;;;;;;;;24.10;42.80;;;;;;1600476;73;776;-68
2022/04/05 00:54:13;;;;;;;;;;;24.10;42.70;;;;;;1601245;73;693;-69
2022/04/05 00:56:16;;;;;;;;;;;24.10;42.70;;;;;;1601980;73;759;-68
2022/04/05 00:58:17;;;;;;;;;;;24.00;42.70;;;;;;1594301;74;1145;-68
2022/04/05 01:00:19;;;;;;;;;;;24.10;42.70;;;;;;1589543;73;661;-68
2022/04/05 01:02:21;;;;;;;;;;;24.10;42.80;;;;;;1580428;73;765;-68
2022/04/05 01:04:23;;;;;;;;;;;24.10;42.80;;;;;;1579124;74;739;-68
2022/04/05 01:06:30;;;;;;;;;;;24.10;42.80;;;;;;1593343;73;1932;-68
2022/04/05 01:08:32;;;;;;;;;;;24.20;42.70;;;;;;1592038;73;1143;-70
2022/04/05 01:10:34;;;;;;;;;;;24.00;42.60;;;;;;1559689;75;650;-67
2022/04/05 01:12:36;;;;;;;;;;;24.10;42.80;;;;;;1582969;74;744;-71
2022/04/05 01:14:38;;;;;;;;;;;24.00;42.60;;;;;;1578996;74;643;-71
2022/04/05 01:16:40;;;;;;;;;;;24.00;42.60;;;;;;1568843;74;781;-66
2022/04/05 01:18:42;;;;;;;;;;;24.00;42.70;;;;;;1576526;75;1172;-68
2022/04/05 01:20:44;;;;;;;;;;;24.00;42.60;;;;;;1576932;75;815;-70
2022/04/05 01:22:49;;;;;;;;;;;24.00;42.60;;;;;;1578613;75;791;-67
2022/04/05 01:24:52;;;;;;;;;;;24.00;42.60;;;;;;1577860;74;696;-67
2022/04/05 01:26:55;;;;;;;;;;;24.10;42.60;;;;;;1579813;74;1890;-67
2022/04/05 01:28:57;;;;;;;;;;;24.00;42.60;;;;;;1578518;74;1110;-68
2022/04/05 01:30:59;;;;;;;;;;;24.00;42.60;;;;;;1578487;75;730;-67
2022/04/05 01:33:01;;;;;;;;;;;24.00;42.60;;;;;;1578447;75;626;-67
2022/04/05 01:35:03;;;;;;;;;;;24.00;42.60;;;;;;1578085;74;779;-67
2022/04/05 01:37:06;;;;;;;;;;;24.00;42.70;;;;;;1570766;75;722;-69
2022/04/05 01:39:09;;;;;;;;;;;24.00;42.80;;;;;;1598331;73;1078;-67
2022/04/05 01:41:12;;;;;;;;;;;24.00;42.60;;;;;;1626680;73;1308;-71
2022/04/05 01:43:14;;;;;;;;;;;24.00;42.60;;;;;;1626633;72;685;-70
2022/04/05 01:45:16;;;;;;;;;;;24.10;42.80;;;;;;1626376;72;1940;-69
2022/04/05 01:47:18;;;;;;;;;;;24.20;42.60;;;;;;1630866;73;703;-71
2022/04/05 01:49:20;;;;;;;;;;;24.20;42.60;;;;;;1621070;72;1078;-70
2022/04/05 01:51:21;;;;;;;;;;;24.10;42.60;;;;;;1627042;73;716;-71
2022/04/05 01:53:23;;;;;;;;;;;24.10;42.60;;;;;;1624425;72;781;-66
2022/04/05 01:55:25;;;;;;;;;;;24.10;42.60;;;;;;1623660;72;756;-66
2022/04/05 01:57:27;;;;;;;;;;;24.00;42.50;;;;;;1624562;72;1122;-66
2022/04/05 01:59:31;;;;;;;;;;;24.10;42.70;;;;;;1624146;73;688;-66
2022/04/05 02:01:32;;;;;;;;;;;24.00;42.60;;;;;;1630924;73;707;-70
2022/04/05 02:03:34;;;;;;;;;;;24.00;42.60;;;;;;1630298;72;724;-68
2022/04/05 02:05:38;;;;;;;;;;;24.00;42.60;;;;;;1623377;73;1939;-69
2022/04/05 02:07:40;;;;;;;;;;;24.00;42.60;;;;;;1619986;72;1099;-66
2022/04/05 02:09:42;;;;;;;;;;;23.90;42.50;;;;;;1622813;73;724;-68
2022/04/05 02:11:44;;;;;;;;;;;23.90;42.60;;;;;;1624874;73;696;-68
2022/04/05 02:13:46;;;;;;;;;;;24.00;42.60;;;;;;1624389;72;715;-68
2022/04/05 02:15:48;;;;;;;;;;;24.00;42.60;;;;;;1629543;72;699;-68
2022/04/05 02:17:50;;;;;;;;;;;23.90;42.50;;;;;;1628784;72;1131;-68
2022/04/05 02:19:54;;;;;;;;;;;23.90;42.50;;;;;;1628210;72;780;-69
2022/04/05 02:21:56;;;;;;;;;;;23.90;42.50;;;;;;1628704;72;1009;-68
2022/04/05 02:23:58;;;;;;;;;;;23.90;42.60;;;;;;1625632;73;790;-67
2022/04/05 02:26:00;;;;;;;;;;;23.90;42.60;;;;;;1631141;72;2081;-69
2022/04/05 02:28:02;;;;;;;;;;;23.90;42.70;;;;;;1623026;72;1179;-67
2022/04/05 02:30:05;;;;;;;;;;;23.90;42.70;;;;;;1630313;72;716;-67
2022/04/05 02:32:07;;;;;;;;;;;23.90;42.70;;;;;;1631201;73;783;-66
2022/04/05 02:34:09;;;;;;;;;;;23.90;42.80;;;;;;1628973;72;726;-64
2022/04/05 02:36:11;;;;;;;;;;;23.90;42.80;;;;;;1631766;72;749;-65
2022/04/05 02:38:13;;;;;;;;;;;23.90;42.80;;;;;;1629124;72;1107;-65
2022/04/05 02:40:15;;;;;;;;;;;23.90;42.80;;;;;;1624819;73;794;-65
2022/04/05 02:42:16;;;;;;;;;;;23.90;42.80;;;;;;1616722;72;724;-66
2022/04/05 02:44:18;;;;;;;;;;;24.00;42.70;;;;;;1622655;72;743;-64
2022/04/05 02:46:20;;;;;;;;;;;24.00;42.70;;;;;;1620685;73;1932;-65
2022/04/05 02:48:22;;;;;;;;;;;24.10;42.80;;;;;;1618273;73;1152;-65
2022/04/05 02:50:24;;;;;;;;;;;24.10;42.60;;;;;;1621377;72;753;-65
2022/04/05 02:52:26;;;;;;;;;;;24.10;42.50;;;;;;1624536;72;789;-65
2022/04/05 02:54:29;;;;;;;;;;;24.30;42.40;;;;;;1626326;73;703;-65
2022/04/05 02:56:31;;;;;;;;;;;24.30;42.30;;;;;;1618259;73;706;-65
2022/04/05 02:58:33;;;;;;;;;;;24.20;42.20;;;;;;1626653;73;1122;-66
2022/04/05 03:00:36;;;;;;;;;;;24.20;42.20;;;;;;1630263;73;751;-65
2022/04/05 03:02:38;;;;;;;;;;;24.30;42.20;;;;;;1615730;72;728;-67
2022/04/05 03:04:40;;;;;;;;;;;24.20;42.30;;;;;;1624714;73;764;-68
2022/04/05 03:06:42;;;;;;;;;;;24.20;42.50;;;;;;1624266;72;1929;-65
2022/04/05 03:08:44;;;;;;;;;;;24.10;42.80;;;;;;1620735;72;1158;-67
2022/04/05 03:10:46;;;;;;;;;;;24.00;43.10;;;;;;1617085;73;793;-62
2022/04/05 03:12:48;;;;;;;;;;;24.00;43.10;;;;;;1622660;72;735;-65
2022/04/05 03:14:49;;;;;;;;;;;23.90;43.30;;;;;;1617943;73;774;-65
2022/04/05 03:16:51;;;;;;;;;;;23.90;43.50;;;;;;1616299;73;770;-67
2022/04/05 03:18:53;;;;;;;;;;;23.80;43.70;;;;;;1616539;73;1113;-66
2022/04/05 03:20:55;;;;;;;;;;;23.90;43.90;;;;;;1627115;72;801;-68
2022/04/05 03:22:59;;;;;;;;;;;23.70;43.90;;;;;;1617525;73;776;-67
2022/04/05 03:25:00;;;;;;;;;;;23.70;44.10;;;;;;1620047;72;759;-65
2022/04/05 03:27:03;;;;;;;;;;;23.70;44.20;;;;;;1617323;72;1928;-66
2022/04/05 03:29:05;;;;;;;;;;;23.60;44.20;;;;;;1616613;73;1140;-65
2022/04/05 03:31:07;;;;;;;;;;;23.70;44.40;;;;;;1618446;73;708;-65
2022/04/05 03:33:09;;;;;;;;;;;23.60;44.40;;;;;;1621073;73;701;-66
2022/04/05 03:35:10;;;;;;;;;;;23.60;44.40;;;;;;1619502;73;762;-65
2022/04/05 03:37:12;;;;;;;;;;;23.60;44.60;;;;;;1614515;72;720;-66
2022/04/05 03:39:14;;;;;;;;;;;23.60;44.60;;;;;;1616103;72;1078;-67
2022/04/05 03:41:16;;;;;;;;;;;23.60;44.60;;;;;;1615750;72;804;-64
2022/04/05 03:43:18;;;;;;;;;;;23.60;44.60;;;;;;1617607;73;713;-65
2022/04/05 03:45:21;;;;;;;;;;;23.60;44.60;;;;;;1619116;72;791;-65
2022/04/05 03:47:24;;;;;;;;;;;23.60;44.70;;;;;;1610648;72;1903;-66
2022/04/05 03:49:26;;;;;;;;;;;23.60;44.90;;;;;;1627103;73;1150;-65
2022/04/05 03:51:28;;;;;;;;;;;23.60;44.80;;;;;;1617872;73;694;-66
2022/04/05 03:53:30;;;;;;;;;;;23.60;44.90;;;;;;1628920;72;681;-66
2022/04/05 03:55:32;;;;;;;;;;;23.60;44.90;;;;;;1620173;73;572;-66
2022/04/05 03:57:33;;;;;;;;;;;23.50;44.80;;;;;;1624534;73;1135;-68
2022/04/05 03:59:35;;;;;;;;;;;23.60;44.90;;;;;;1624751;73;720;-65
2022/04/05 04:01:37;;;;;;;;;;;23.60;44.90;;;;;;1617086;72;822;-69
2022/04/05 04:03:39;;;;;;;;;;;23.60;44.90;;;;;;1620735;73;723;-68
2022/04/05 04:05:41;;;;;;;;;;;23.60;44.80;;;;;;1608736;72;702;-66
2022/04/05 04:07:43;;;;;;;;;;;23.50;44.80;;;;;;1618462;73;1928;-66
2022/04/05 04:09:45;;;;;;;;;;;23.60;44.70;;;;;;1627123;73;785;-66
2022/04/05 04:11:47;;;;;;;;;;;23.60;44.70;;;;;;1618700;72;753;-67
2022/04/05 04:13:48;;;;;;;;;;;23.60;44.50;;;;;;1622196;73;722;-68
2022/04/05 04:15:50;;;;;;;;;;;23.60;44.50;;;;;;1625066;72;723;-68
2022/04/05 04:17:52;;;;;;;;;;;23.60;44.40;;;;;;1612888;73;1143;-65
2022/04/05 04:19:54;;;;;;;;;;;23.60;44.50;;;;;;1621240;72;770;-65
2022/04/05 04:21:56;;;;;;;;;;;23.70;44.70;;;;;;1624694;73;744;-66
2022/04/05 04:23:58;;;;;;;;;;;23.70;44.70;;;;;;1622398;73;693;-66
2022/04/05 04:26:00;;;;;;;;;;;23.70;44.50;;;;;;1620907;72;708;-66
2022/04/05 04:28:02;;;;;;;;;;;23.70;44.50;;;;;;1617392;73;1945;-66
2022/04/05 04:30:04;;;;;;;;;;;23.70;44.60;;;;;;1620835;73;784;-67
2022/04/05 04:32:06;;;;;;;;;;;23.60;44.30;;;;;;1625741;73;775;-66
2022/04/05 04:34:08;;;;;;;;;;;23.70;44.50;;;;;;1625131;72;733;-66
2022/04/05 04:36:10;;;;;;;;;;;23.70;44.40;;;;;;1619770;72;712;-66
2022/04/05 04:38:12;;;;;;;;;;;23.70;44.40;;;;;;1620679;72;1138;-68
2022/04/05 04:40:14;;;;;;;;;;;23.70;44.40;;;;;;1619757;72;722;-66
2022/04/05 04:42:16;;;;;;;;;;;23.70;44.40;;;;;;1620274;72;656;-65
2022/04/05 04:44:18;;;;;;;;;;;23.80;44.30;;;;;;1623537;72;761;-67
2022/04/05 04:46:20;;;;;;;;;;;23.70;44.40;;;;;;1617070;72;772;-67
2022/04/05 04:48:22;;;;;;;;;;;23.80;44.30;;;;;;1623577;72;1917;-66
2022/04/05 04:50:24;;;;;;;;;;;23.80;44.40;;;;;;1622621;72;793;-66
2022/04/05 04:52:26;;;;;;;;;;;23.80;44.00;;;;;;1623646;72;712;-65
2022/04/05 04:54:28;;;;;;;;;;;24.00;43.60;;;;;;1625964;73;726;-66
2022/04/05 04:56:30;;;;;;;;;;;24.00;43.20;;;;;;1624363;72;661;-66
2022/04/05 04:58:32;;;;;;;;;;;24.00;43.10;;;;;;1630149;72;1138;-66
2022/04/05 05:00:33;;;;;;;;;;;24.00;43.00;;;;;;1625984;72;666;-68
2022/04/05 05:02:37;;;;;;;;;;;24.00;43.00;;;;;;1614442;73;668;-69
2022/04/05 05:04:39;;;;;;;;;;;24.00;42.90;;;;;;1611974;73;1484;-66
2022/04/05 05:06:41;;;;;;;;;;;23.90;42.90;;;;;;1624252;73;1921;-63
2022/04/05 05:08:43;;;;;;;;;;;24.00;42.70;;;;;;1626014;73;1115;-66
2022/04/05 05:10:45;;;;;;;;;;;23.90;42.60;;;;;;1623573;72;781;-67
2022/04/05 05:12:47;;;;;;;;;;;23.90;42.60;;;;;;1622097;73;674;-68
2022/04/05 05:14:49;;;;;;;;;;;23.90;42.60;;;;;;1627250;73;792;-65
2022/04/05 05:16:51;;;;;;;;;;;24.00;42.50;;;;;;1617966;72;778;-68
2022/04/05 05:18:53;;;;;;;;;;;24.00;42.40;;;;;;1614633;72;1051;-66
2022/04/05 05:20:55;;;;;;;;;;;24.00;42.20;;;;;;1616972;72;800;-66
2022/04/05 05:22:58;;;;;;;;;;;24.00;42.20;;;;;;1618260;73;710;-66
2022/04/05 05:25:00;;;;;;;;;;;24.00;42.10;;;;;;1623010;73;677;-66
2022/04/05 05:27:02;;;;;;;;;;;24.00;42.00;;;;;;1618028;73;1916;-66
2022/04/05 05:29:04;;;;;;;;;;;24.00;42.10;;;;;;1616581;72;1129;-68
2022/04/05 05:31:05;;;;;;;;;;;23.90;42.10;;;;;;1621251;72;688;-66
2022/04/05 05:33:07;;;;;;;;;;;24.00;42.10;;;;;;1623866;73;595;-66
2022/04/05 05:35:09;;;;;;;;;;;24.00;42.00;;;;;;1616745;72;793;-67
2022/04/05 05:37:11;;;;;;;;;;;24.00;41.80;;;;;;1621810;73;871;-67
2022/04/05 05:39:13;;;;;;;;;;;24.00;41.90;;;;;;1622041;72;1135;-66
2022/04/05 05:41:15;;;;;;;;;;;24.00;41.90;;;;;;1615738;72;767;-66
2022/04/05 05:43:17;;;;;;;;;;;24.00;41.80;;;;;;1625759;72;657;-66
2022/04/05 05:45:19;;;;;;;;;;;24.00;41.80;;;;;;1622513;73;717;-66
2022/04/05 05:47:21;;;;;;;;;;;24.00;41.80;;;;;;1610693;72;1925;-69
2022/04/05 05:49:23;;;;;;;;;;;23.90;41.70;;;;;;1622823;72;1108;-66
2022/04/05 05:51:25;;;;;;;;;;;24.00;41.60;;;;;;1619179;72;714;-67
2022/04/05 05:53:27;;;;;;;;;;;23.90;41.50;;;;;;1617709;73;745;-66
2022/04/05 05:55:29;;;;;;;;;;;24.00;41.60;;;;;;1620255;72;789;-66
2022/04/05 05:57:31;;;;;;;;;;;23.90;41.50;;;;;;1618929;72;1123;-66
2022/04/05 05:59:33;;;;;;;;;;;23.90;41.50;;;;;;1629455;73;666;-67
2022/04/05 06:01:35;;;;;;;;;;;23.90;41.50;;;;;;1623305;72;718;-67
2022/04/05 06:03:37;;;;;;;;;;;23.90;41.50;;;;;;1620393;73;738;-68
2022/04/05 06:05:39;;;;;;;;;;;23.90;41.50;;;;;;1613437;73;739;-67
2022/04/05 06:07:41;;;;;;;;;;;23.90;41.50;;;;;;1605941;73;1943;-65
2022/04/05 06:09:43;;;;;;;;;;;23.90;41.50;;;;;;1619749;73;760;-66
2022/04/05 06:11:45;;;;;;;;;;;23.90;41.40;;;;;;1627476;72;786;-66
2022/04/05 06:13:47;;;;;;;;;;;23.90;41.40;;;;;;1625429;72;780;-66
2022/04/05 06:15:48;;;;;;;;;;;23.80;41.20;;;;;;1623487;73;770;-67
2022/04/05 06:17:50;;;;;;;;;;;23.80;41.30;;;;;;1624131;73;1130;-67
2022/04/05 06:19:52;;;;;;;;;;;23.90;41.40;;;;;;1624256;73;698;-66
2022/04/05 06:21:54;;;;;;;;;;;23.80;41.30;;;;;;1622776;73;692;-68
2022/04/05 06:23:56;;;;;;;;;;;23.90;41.40;;;;;;1623596;73;1075;-67
2022/04/05 06:25:58;;;;;;;;;;;23.90;41.40;;;;;;1623325;73;732;-67
2022/04/05 06:28:03;;;;;;;;;;;23.80;41.30;;;;;;1623382;73;1939;-66
2022/04/05 06:30:05;;;;;;;;;;;23.90;41.30;;;;;;1619683;73;743;-67
2022/04/05 06:32:07;;;;;;;;;;;23.80;41.30;;;;;;1623060;73;787;-68
2022/04/05 06:34:09;;;;;;;;;;;23.70;41.30;;;;;;1622670;73;770;-64
2022/04/05 06:36:11;;;;;;;;;;;23.80;41.30;;;;;;1623284;73;710;-67
2022/04/05 06:38:13;;;;;;;;;;;23.80;41.20;;;;;;1613966;72;3145;-65
2022/04/05 06:40:15;;;;;;;;;;;23.80;41.20;;;;;;1595993;73;691;-63
2022/04/05 06:42:17;;;;;;;;;;;23.70;41.30;;;;;;1590205;73;741;-65
2022/04/05 06:44:19;;;;;;;;;;;23.70;41.20;;;;;;1592963;73;794;-62
2022/04/05 06:46:22;;;;;;;;;;;23.80;41.20;;;;;;1591060;73;737;-62
2022/04/05 06:48:24;;;;;;;;;;;23.70;41.20;;;;;;1591275;73;1897;-63
2022/04/05 06:50:26;;;;;;;;;;;23.80;41.20;;;;;;1589978;73;795;-65
2022/04/05 06:52:28;;;;;;;;;;;23.70;41.20;;;;;;1590150;73;712;-62
2022/04/05 06:54:30;;;;;;;;;;;23.70;41.20;;;;;;1589552;73;707;-64
2022/04/05 06:56:31;;;;;;;;;;;23.70;41.20;;;;;;1590429;75;729;-62
2022/04/05 06:58:33;;;;;;;;;;;23.80;41.20;;;;;;1590541;73;1300;-62
2022/04/05 07:00:35;;;;;;;;;;;23.70;41.20;;;;;;1590043;73;666;-65
2022/04/05 07:02:37;;;;;;;;;;;23.70;41.20;;;;;;1564561;74;661;-62
2022/04/05 07:04:39;;;;;;;;;;;23.70;41.20;;;;;;1564350;74;652;-63
2022/04/05 07:06:41;;;;;;;;;;;23.70;41.20;;;;;;1565064;74;701;-60
2022/04/05 07:08:43;;;;;;;;;;;23.80;41.10;;;;;;1567880;74;1927;-60
2022/04/05 07:10:45;;;;;;;;;;;23.80;41.10;;;;;;1610345;72;731;-58
2022/04/05 07:12:47;;;;;;;;;;;23.90;41.00;;;;;;1611063;72;800;-59
2022/04/05 07:14:51;;;;;;;;;;;23.90;41.00;;;;;;1611718;72;730;-60
2022/04/05 07:16:53;;;;;;;;;;;23.90;40.90;;;;;;1609471;72;720;-59
2022/04/05 07:18:55;;;;;;;;;;;23.90;40.70;;;;;;1612571;72;1142;-61
2022/04/05 07:20:56;;;;;;;;;;;23.90;40.70;;;;;;1608907;72;756;-59
2022/04/05 07:22:58;;;;;;;;;;;23.90;40.60;;;;;;1609541;72;723;-61
2022/04/05 07:25:00;;;;;;;;;;;24.00;40.60;;;;;;1610062;72;704;-60
2022/04/05 07:27:02;;;;;;;;;;;24.00;40.50;;;;;;1609119;72;713;-60
2022/04/05 07:29:04;;;;;;;;;;;24.00;40.40;;;;;;1611422;73;1930;-62
2022/04/05 07:31:06;;;;;;;;;;;24.00;40.30;;;;;;1611704;72;731;-63
2022/04/05 07:33:09;;;;;;;;;;;24.10;40.40;;;;;;1613243;73;724;-64
2022/04/05 07:35:11;;;;;;;;;;;24.10;40.40;;;;;;1608681;72;781;-64
2022/04/05 07:37:13;;;;;;;;;;;24.10;40.30;;;;;;1613447;72;1062;-63
2022/04/05 07:39:15;;;;;;;;;;;24.00;40.20;;;;;;1613393;72;1158;-66
2022/04/05 07:41:17;;;;;;;;;;;24.00;40.20;;;;;;1607158;73;772;-64
2022/04/05 07:43:20;;;;;;;;;;;24.00;40.20;;;;;;1587481;73;1373;-63
2022/04/05 07:45:22;;;;;;;;;;;24.10;40.20;;;;;;1608794;72;740;-64
2022/04/05 07:47:24;;;;;;;;;;;24.10;40.20;;;;;;1611727;73;775;-65
2022/04/05 07:49:26;;;;;;;;;;;24.10;40.10;;;;;;1610991;72;1948;-66
2022/04/05 07:51:28;;;;;;;;;;;24.20;40.10;;;;;;1611508;72;682;-66
2022/04/05 07:53:30;;;;;;;;;;;24.10;40.10;;;;;;1612560;72;722;-62
2022/04/05 07:55:32;;;;;;;;;;;24.00;39.90;;;;;;1610076;72;728;-66
2022/04/05 07:57:36;;;;;;;;;;;24.00;40.00;;;;;;1614250;73;696;-66
2022/04/05 07:59:37;;;;;;;;;;;23.90;39.80;;;;;;1560809;76;1145;-65
2022/04/05 08:01:39;;;;;;;;;;;23.90;39.50;;;;;;1575692;75;746;-68
2022/04/05 08:03:41;;;;;;;;;;;23.80;39.20;;;;;;1570417;75;822;-66
2022/04/05 08:05:43;;;;;;;;;;;23.80;38.90;;;;;;1560574;76;741;-66
2022/04/05 08:07:46;;;;;;;;;;;23.70;38.40;;;;;;1562413;76;1938;-65
2022/04/05 08:09:48;;;;;;;;;;;23.60;38.20;;;;;;1563996;76;799;-65
2022/04/05 08:11:49;;;;;;;;;;;23.50;38.10;;;;;;1566588;76;767;-65
2022/04/05 08:13:51;;;;;;;;;;;23.50;37.60;;;;;;1568523;74;711;-65
2022/04/05 08:15:54;;;;;;;;;;;23.50;37.60;;;;;;1563180;74;710;-66
2022/04/05 08:17:57;;;;;;;;;;;23.50;37.40;;;;;;1564845;74;1120;-66
2022/04/05 08:19:59;;;;;;;;;;;23.40;37.30;;;;;;1562487;76;788;-65
2022/04/05 08:22:01;;;;;;;;;;;23.40;37.00;;;;;;1563909;74;683;-65
2022/04/05 08:24:04;;;;;;;;;;;23.30;37.00;;;;;;1580718;74;736;-65
2022/04/05 08:26:06;;;;;;;;;;;23.30;36.90;;;;;;1562446;76;751;-67
2022/04/05 08:28:08;;;;;;;;;;;23.20;36.80;;;;;;1561737;76;1942;-66
2022/04/05 08:30:10;;;;;;;;;;;23.20;36.30;;;;;;1588641;75;790;-65
2022/04/05 08:32:12;;;;;;;;;;;23.20;36.50;;;;;;1607143;73;741;-65
2022/04/05 08:34:14;;;;;;;;;;;23.10;36.10;;;;;;1606984;73;761;-65
2022/04/05 08:36:16;;;;;;;;;;;23.10;36.10;;;;;;1610375;73;701;-67
2022/04/05 08:38:18;;;;;;;;;;;23.10;36.00;;;;;;1607739;73;1143;-68
2022/04/05 08:40:20;;;;;;;;;;;23.00;35.70;;;;;;1609834;73;774;-66
2022/04/05 08:42:23;;;;;;;;;;;23.00;35.40;;;;;;1607728;73;727;-67
2022/04/05 08:44:25;;;;;;;;;;;23.00;35.20;;;;;;1597666;73;782;-65
2022/04/05 08:46:27;;;;;;;;;;;23.00;35.50;;;;;;1616436;73;786;-65
2022/04/05 08:48:30;;;;;;;;;;;22.80;35.20;;;;;;1613588;73;1945;-66
2022/04/05 08:50:32;;;;;;;;;;;22.80;35.10;;;;;;1608554;73;662;-65
2022/04/05 08:52:34;;;;;;;;;;;22.80;35.20;;;;;;1609107;73;759;-64
2022/04/05 08:54:37;;;;;;;;;;;22.90;35.10;;;;;;1610919;73;706;-65
2022/04/05 08:56:39;;;;;;;;;;;22.80;34.90;;;;;;1611293;73;740;-65
2022/04/05 08:58:41;;;;;;;;;;;22.70;34.80;;;;;;1608903;73;1145;-64
2022/04/05 09:00:43;;;;;;;;;;;22.70;34.70;;;;;;1611303;73;801;-66
2022/04/05 09:02:54;;;;;;;;;;;22.70;34.80;;;;;;1607873;73;766;-67
2022/04/05 09:04:56;;;;;;;;;;;22.70;34.90;;;;;;1601787;73;736;-67
2022/04/05 09:06:58;;;;;;;;;;;22.70;35.00;;;;;;1612247;73;705;-62
2022/04/05 09:09:18;;;;;;;;;;;22.60;34.70;;;;;;1605927;72;1942;-69
2022/04/05 09:11:20;;;;;;;;;;;22.60;34.70;;;;;;1607900;73;742;-69
2022/04/05 09:13:23;;;;;;;;;;;22.60;34.90;;;;;;1611711;73;765;-67
2022/04/05 09:15:25;;;;;;;;;;;22.60;34.60;;;;;;1611388;73;721;-64
2022/04/05 09:17:27;;;;;;;;;;;22.50;34.80;;;;;;1611573;73;779;-67
2022/04/05 09:19:29;;;;;;;;;;;22.50;34.80;;;;;;1608677;73;1134;-65
2022/04/05 09:21:33;;;;;;;;;;;22.50;34.70;;;;;;1586231;74;1265;-66
2022/04/05 09:23:41;;;;;;;;;;;22.50;34.70;;;;;;1605151;73;1860;-67
2022/04/05 09:25:45;;;;;;;;;;;22.40;34.40;;;;;;1611630;73;947;-64
2022/04/05 09:27:50;;;;;;;;;;;22.40;34.40;;;;;;1610291;73;1909;-66
2022/04/05 09:29:52;;;;;;;;;;;22.40;34.50;;;;;;1611817;73;1922;-66
2022/04/05 09:31:54;;;;;;;;;;;22.40;34.20;;;;;;1611837;73;920;-67
2022/04/05 09:34:05;;;;;;;;;;;22.40;34.40;;;;;;1562503;74;711;-65
2022/04/05 09:36:11;;;;;;;;;;;22.40;34.40;;;;;;1563926;75;786;-65
2022/04/05 09:38:15;;;;;;;;;;;22.30;34.40;;;;;;1562857;75;1141;-66
2022/04/05 09:40:21;;;;;;;;;;;22.30;34.40;;;;;;1563829;75;813;-66
2022/04/05 09:42:23;;;;;;;;;;;22.30;34.30;;;;;;1562973;75;708;-66
2022/04/05 09:44:31;;;;;;;;;;;22.30;34.30;;;;;;1562784;75;714;-66
2022/04/05 09:46:35;;;;;;;;;;;22.20;34.00;;;;;;1563587;74;717;-66
2022/04/05 09:48:37;;;;;;;;;;;22.20;34.20;;;;;;1567679;74;1925;-66
2022/04/05 09:51:01;;;;;;;;;;;22.20;34.00;;;;;;1606251;73;662;-65
2022/04/05 09:53:05;;;;;;;;;;;22.20;34.10;;;;;;1600864;73;753;-67
2022/04/05 09:55:11;;;;;;;;;;;22.20;34.10;;;;;;1611643;73;731;-66
2022/04/05 09:57:12;;;;;;;;;;;22.20;34.10;;;;;;1616257;73;603;-63
2022/04/05 09:59:19;;;;;;;;;;;22.10;34.10;;;;;;1617778;73;1146;-66
2022/04/05 10:01:23;;;;;;;;;;;22.10;34.20;;;;;;1608391;73;712;-67
2022/04/05 10:03:25;;;;;;;;;;;22.10;34.20;;;;;;1608758;73;1795;-66
2022/04/05 10:05:26;;;;;;;;;;;22.10;34.10;;;;;;1609152;73;813;-65
2022/04/05 10:07:29;;;;;;;;;;;22.10;34.20;;;;;;1611841;73;777;-65
2022/04/05 10:09:31;;;;;;;;;;;22.10;34.10;;;;;;1608373;73;1948;-65
2022/04/05 10:11:33;;;;;;;;;;;22.10;34.10;;;;;;1610354;73;724;-65
2022/04/05 10:13:35;;;;;;;;;;;22.10;33.90;;;;;;1609881;73;722;-67
2022/04/05 10:15:37;;;;;;;;;;;22.10;33.80;;;;;;1610235;73;648;-65
2022/04/05 10:17:43;;;;;;;;;;;22.00;33.70;;;;;;1613173;73;735;-65
2022/04/05 10:19:43;;;;;;;;;;;22.10;33.90;;;;;;1605012;73;1681;-66
2022/04/05 10:21:45;;;;;;;;;;;22.00;33.70;;;;;;1613189;73;763;-65
2022/04/05 10:23:47;;;;;;;;;;;22.00;33.60;;;;;;1608072;73;693;-66
2022/04/05 10:25:49;;;;;;;;;;;22.00;33.70;;;;;;1608692;73;729;-67
2022/04/05 10:27:51;;;;;;;;;;;22.00;33.70;;;;;;1611210;73;1147;-65
2022/04/05 10:30:01;;;;;;;;;;;22.00;33.80;;;;;;1607186;73;1937;-66
2022/04/05 10:32:07;;;;;;;;;;;22.00;33.70;;;;;;1609913;73;1133;-65
2022/04/05 10:34:16;;;;;;;;;;;22.00;33.80;;;;;;1608561;73;2204;-65
2022/04/05 10:36:24;;;;;;;;;;;22.00;33.80;;;;;;1606929;73;1986;-66
2022/04/05 10:38:27;;;;;;;;;;;21.90;33.80;;;;;;1607419;73;1166;-66
2022/04/05 10:40:29;;;;;;;;;;;21.90;33.80;;;;;;1606944;73;841;-63
2022/04/05 10:42:34;;;;;;;;;;;22.00;33.80;;;;;;1607365;73;726;-65
2022/04/05 10:44:36;;;;;;;;;;;21.90;33.70;;;;;;1611399;73;624;-68
2022/04/05 10:46:39;;;;;;;;;;;21.90;33.70;;;;;;1618004;73;768;-67
2022/04/05 10:48:58;;;;;;;;;;;21.90;33.70;;;;;;1605275;73;1938;-65
2022/04/05 10:51:05;;;;;;;;;;;21.90;33.70;;;;;;1607177;73;739;-64
2022/04/05 10:53:17;;;;;;;;;;;21.90;33.70;;;;;;1608537;73;760;-65
2022/04/05 10:55:20;;;;;;;;;;;21.80;33.50;;;;;;1611221;73;720;-66
2022/04/05 10:57:34;;;;;;;;;;;21.90;33.70;;;;;;1604257;73;767;-65
2022/04/05 10:59:33;;;;;;;;;;;21.90;33.80;;;;;;1614793;73;1624;-65
2022/04/05 11:01:45;;;;;;;;;;;21.80;33.70;;;;;;1611900;73;1896;-69
2022/04/05 11:03:49;;;;;;;;;;;21.80;33.70;;;;;;1596467;73;1539;-66
2022/04/05 11:05:51;;;;;;;;;;;21.80;33.70;;;;;;1588581;73;1129;-65
2022/04/05 11:07:54;;;;;;;;;;;21.70;33.70;;;;;;1616094;73;1195;-65
2022/04/05 11:09:58;;;;;;;;;;;21.70;33.70;;;;;;1609750;73;1939;-66
2022/04/05 11:12:01;;;;;;;;;;;21.70;33.80;;;;;;1610087;73;773;-65
2022/04/05 11:14:03;;;;;;;;;;;21.70;33.80;;;;;;1609522;73;922;-63
2022/04/05 11:16:07;;;;;;;;;;;21.70;33.90;;;;;;1613109;73;734;-64
2022/04/05 11:18:09;;;;;;;;;;;21.70;33.90;;;;;;1608617;73;1964;-64
2022/04/05 11:20:11;;;;;;;;;;;21.70;33.90;;;;;;1611265;73;753;-64
2022/04/05 11:22:24;;;;;;;;;;;21.80;33.90;;;;;;1605683;72;730;-64
2022/04/05 11:24:36;;;;;;;;;;;21.70;33.90;;;;;;1607111;73;848;-64
2022/04/05 11:26:39;;;;;;;;;;;21.70;33.90;;;;;;1582621;74;1767;-68
2022/04/05 11:28:47;;;;;;;;;;;21.70;33.90;;;;;;1608110;73;1143;-65
2022/04/05 11:30:51;;;;;;;;;;;21.70;33.90;;;;;;1615048;73;670;-64
2022/04/05 11:33:12;;;;;;;;;;;21.60;33.90;;;;;;1608703;73;695;-64
2022/04/05 11:35:26;;;;;;;;;;;21.70;33.90;;;;;;1606008;73;765;-64
2022/04/05 11:37:33;;;;;;;;;;;21.60;33.90;;;;;;1614944;73;735;-64
2022/04/05 11:39:36;;;;;;;;;;;21.60;33.90;;;;;;1609138;73;1328;-68
2022/04/05 11:41:41;;;;;;;;;;;21.60;33.90;;;;;;1616458;73;814;-65
2022/04/05 11:43:43;;;;;;;;;;;21.60;33.90;;;;;;1592597;73;736;-63
2022/04/05 11:45:48;;;;;;;;;;;21.70;33.90;;;;;;1560555;74;715;-64
2022/04/05 11:47:54;;;;;;;;;;;21.70;33.90;;;;;;1600670;73;1202;-65
2022/04/05 11:49:55;;;;;;;;;;;21.60;33.90;;;;;;1590480;73;1933;-64
2022/04/05 11:51:57;;;;;;;;;;;21.60;33.90;;;;;;1590053;75;792;-64
2022/04/05 11:54:07;;;;;;;;;;;21.60;33.90;;;;;;1589326;75;767;-65
2022/04/05 11:56:10;;;;;;;;;;;21.60;33.90;;;;;;1555118;76;1494;-64
2022/04/05 11:58:13;;;;;;;;;;;21.60;33.90;;;;;;1561378;76;1166;-64
2022/04/05 12:00:18;;;;;;;;;;;21.60;33.90;;;;;;1608057;73;717;-65
2022/04/05 12:02:29;;;;;;;;;;;21.60;34.20;;;;;;1606341;73;687;-64
2022/04/05 12:04:32;;;;;;;;;;;21.60;35.40;;;;;;1608427;73;786;-68
2022/04/05 12:06:39;;;;;;;;;;;21.60;35.90;;;;;;1611536;73;691;-65
2022/04/05 12:08:40;;;;;;;;;;;21.70;35.90;;;;;;1610369;73;1156;-64
2022/04/05 12:10:43;;;;;;;;;;;21.90;36.00;;;;;;1606536;73;1911;-65
2022/04/05 12:12:45;;;;;;;;;;;22.00;35.90;;;;;;1611068;73;796;-64